PWSweather.com
Personal Weather Stations
Station Observations
KMNGREYC2
Grey Cloud Island, Grey Cloud Island, MN 55071

Grey Cloud IslandGrey Cloud Island, MN 55071

Lat: 44.799333, Lon: -92.987851

Elevation: 700

Station Type: Davis VP2

www.jagielski.com/weather/conditions.htm

High Low Average
Temperature 13.8°F-10.1°C -3.4°F-19.7°C 2.1°F-16.6°C
Dew Point 1.0°F-17.2°C -10.9°F-23.8°C -6.5°F-21.4°C
Winds 5.0 mph 8.0 kmh Calm Calm Calm ESECalm ESE
Wind Gusts 8.0 mph12.9 kmh -- 3.0 mph4.8 kmh
Humidity 81% 53% 67%
Pressure 30.51 in1033.2 mb 30.40 in1029.5 mb -
Precipitation 0.00 in0.0 mm - -
Hour Temp Dew Point Humidity Winds Wind Gusts Pressure Precip Precip Rate Daily Precip Total
12:00 AM 1.2°F-17.1°C -9.8°F-23.2°C 59% Calm Calm 4.0 mph6.4 kmh 30.36 in1028.1 mb 0.00 in0.0 mm 0.00 in0.0 mm 0.00 in0.0 mm
12:15 AM 1.0°F-17.2°C -9.6°F-23.1°C 60% 1.0 mph N1.6 kmh N 6.0 mph9.7 kmh 30.37 in1028.4 mb 0.00 in0.0 mm 0.00 in0.0 mm 0.00 in0.0 mm
12:30 AM 0.8°F-17.3°C -10.2°F-23.4°C 59% Calm Calm 7.0 mph11.3 kmh 30.38 in1028.8 mb 0.00 in0.0 mm 0.00 in0.0 mm 0.00 in0.0 mm
12:45 AM 0.7°F-17.4°C -10.3°F-23.5°C 59% 1.0 mph N1.6 kmh N 8.0 mph12.9 kmh 30.39 in1029.1 mb 0.00 in0.0 mm 0.00 in0.0 mm 0.00 in0.0 mm
01:00 AM 0.7°F-17.4°C -9.9°F-23.3°C 60% 1.0 mph NNW1.6 kmh NNW 8.0 mph12.9 kmh 30.40 in1029.5 mb 0.00 in0.0 mm 0.00 in0.0 mm 0.00 in0.0 mm
01:15 AM 0.7°F-17.4°C -10.3°F-23.5°C 59% Calm Calm 6.0 mph9.7 kmh 30.40 in1029.5 mb 0.00 in0.0 mm 0.00 in0.0 mm 0.00 in0.0 mm
01:30 AM 0.8°F-17.3°C -10.2°F-23.4°C 59% Calm Calm 6.0 mph9.7 kmh 30.40 in1029.5 mb 0.00 in0.0 mm 0.00 in0.0 mm 0.00 in0.0 mm
01:45 AM 0.6°F-17.4°C -10.7°F-23.7°C 58% 2.0 mph NNE3.2 kmh NNE 6.0 mph9.7 kmh 30.40 in1029.5 mb 0.00 in0.0 mm 0.00 in0.0 mm 0.00 in0.0 mm
02:00 AM 0.6°F-17.4°C -10.7°F-23.7°C 58% 2.0 mph N3.2 kmh N 7.0 mph11.3 kmh 30.40 in1029.5 mb 0.00 in0.0 mm 0.00 in0.0 mm 0.00 in0.0 mm
02:15 AM 0.5°F-17.5°C -10.8°F-23.8°C 58% Calm Calm 7.0 mph11.3 kmh 30.40 in1029.5 mb 0.00 in0.0 mm 0.00 in0.0 mm 0.00 in0.0 mm
02:30 AM 0.4°F-17.6°C -10.9°F-23.8°C 58% 1.0 mph N1.6 kmh N 7.0 mph11.3 kmh 30.40 in1029.5 mb 0.00 in0.0 mm 0.00 in0.0 mm 0.00 in0.0 mm
02:45 AM 0.3°F-17.6°C -10.6°F-23.7°C 59% Calm Calm 5.0 mph8.0 kmh 30.40 in1029.5 mb 0.00 in0.0 mm 0.00 in0.0 mm 0.00 in0.0 mm
03:00 AM 0.1°F-17.7°C -10.9°F-23.8°C 59% Calm Calm 8.0 mph12.9 kmh 30.40 in1029.5 mb 0.00 in0.0 mm 0.00 in0.0 mm 0.00 in0.0 mm
03:15 AM -0.2°F-17.9°C -10.8°F-23.8°C 60% Calm Calm 6.0 mph9.7 kmh 30.41 in1029.8 mb 0.00 in0.0 mm 0.00 in0.0 mm 0.00 in0.0 mm
03:30 AM -0.3°F-17.9°C -10.5°F-23.6°C 61% Calm Calm 6.0 mph9.7 kmh 30.41 in1029.8 mb 0.00 in0.0 mm 0.00 in0.0 mm 0.00 in0.0 mm
03:45 AM -0.4°F-18.0°C -10.6°F-23.7°C 61% Calm Calm 5.0 mph8.0 kmh 30.41 in1029.8 mb 0.00 in0.0 mm 0.00 in0.0 mm 0.00 in0.0 mm
04:00 AM -0.5°F-18.1°C -10.7°F-23.7°C 61% 1.0 mph N1.6 kmh N 5.0 mph8.0 kmh 30.42 in1030.1 mb 0.00 in0.0 mm 0.00 in0.0 mm 0.00 in0.0 mm
04:15 AM -0.7°F-18.2°C -10.6°F-23.7°C 62% Calm Calm 3.0 mph4.8 kmh 30.42 in1030.1 mb 0.00 in0.0 mm 0.00 in0.0 mm 0.00 in0.0 mm
04:30 AM -1.1°F-18.4°C -10.6°F-23.7°C 63% Calm Calm 3.0 mph4.8 kmh 30.42 in1030.1 mb 0.00 in0.0 mm 0.00 in0.0 mm 0.00 in0.0 mm
04:45 AM -1.3°F-18.5°C -10.5°F-23.6°C 64% Calm Calm 2.0 mph3.2 kmh 30.42 in1030.1 mb 0.00 in0.0 mm 0.00 in0.0 mm 0.00 in0.0 mm
05:00 AM -1.5°F-18.6°C -10.4°F-23.6°C 65% Calm Calm 2.0 mph3.2 kmh 30.42 in1030.1 mb 0.00 in0.0 mm 0.00 in0.0 mm 0.00 in0.0 mm
05:15 AM -1.8°F-18.8°C -10.7°F-23.7°C 65% Calm Calm 2.0 mph3.2 kmh 30.43 in1030.5 mb 0.00 in0.0 mm 0.00 in0.0 mm 0.00 in0.0 mm
05:30 AM -2.1°F-18.9°C -10.7°F-23.7°C 66% Calm Calm 2.0 mph3.2 kmh 30.43 in1030.5 mb 0.00 in0.0 mm 0.00 in0.0 mm 0.00 in0.0 mm
05:45 AM -2.3°F-19.1°C -10.9°F-23.8°C 66% Calm Calm 2.0 mph3.2 kmh 30.42 in1030.1 mb 0.00 in0.0 mm 0.00 in0.0 mm 0.00 in0.0 mm
06:00 AM -2.6°F-19.2°C -10.8°F-23.8°C 67% Calm Calm 4.0 mph6.4 kmh 30.42 in1030.1 mb 0.00 in0.0 mm 0.00 in0.0 mm 0.00 in0.0 mm
06:15 AM -2.8°F-19.3°C -10.7°F-23.7°C 68% Calm Calm 2.0 mph3.2 kmh 30.43 in1030.5 mb 0.00 in0.0 mm 0.00 in0.0 mm 0.00 in0.0 mm
06:30 AM -3.0°F-19.4°C -10.9°F-23.8°C 68% 1.0 mph N1.6 kmh N 3.0 mph4.8 kmh 30.43 in1030.5 mb 0.00 in0.0 mm 0.00 in0.0 mm 0.00 in0.0 mm
06:45 AM -3.1°F-19.5°C -10.7°F-23.7°C 69% 1.0 mph N1.6 kmh N 5.0 mph8.0 kmh 30.42 in1030.1 mb 0.00 in0.0 mm 0.00 in0.0 mm 0.00 in0.0 mm
07:00 AM -3.2°F-19.6°C -10.8°F-23.8°C 69% 3.0 mph NNE4.8 kmh NNE 5.0 mph8.0 kmh 30.42 in1030.1 mb 0.00 in0.0 mm 0.00 in0.0 mm 0.00 in0.0 mm
07:15 AM -3.1°F-19.5°C -10.4°F-23.6°C 70% Calm Calm 3.0 mph4.8 kmh 30.42 in1030.1 mb 0.00 in0.0 mm 0.00 in0.0 mm 0.00 in0.0 mm
07:30 AM -3.1°F-19.5°C -10.4°F-23.6°C 70% Calm Calm 5.0 mph8.0 kmh 30.43 in1030.5 mb 0.00 in0.0 mm 0.00 in0.0 mm 0.00 in0.0 mm
07:45 AM -3.2°F-19.6°C -10.5°F-23.6°C 70% Calm Calm 3.0 mph4.8 kmh 30.44 in1030.8 mb 0.00 in0.0 mm 0.00 in0.0 mm 0.00 in0.0 mm
08:00 AM -3.2°F-19.6°C -10.5°F-23.6°C 70% Calm Calm 3.0 mph4.8 kmh 30.45 in1031.2 mb 0.00 in0.0 mm 0.00 in0.0 mm 0.00 in0.0 mm
08:15 AM -3.3°F-19.6°C -10.3°F-23.5°C 71% Calm Calm 4.0 mph6.4 kmh 30.45 in1031.2 mb 0.00 in0.0 mm 0.00 in0.0 mm 0.00 in0.0 mm
08:30 AM -3.4°F-19.7°C -10.2°F-23.4°C 72% Calm Calm 4.0 mph6.4 kmh 30.46 in1031.5 mb 0.00 in0.0 mm 0.00 in0.0 mm 0.00 in0.0 mm
08:45 AM -3.4°F-19.7°C -10.2°F-23.4°C 72% Calm Calm 2.0 mph3.2 kmh 30.46 in1031.5 mb 0.00 in0.0 mm 0.00 in0.0 mm 0.00 in0.0 mm
09:00 AM -3.3°F-19.6°C -9.8°F-23.2°C 73% Calm Calm 2.0 mph3.2 kmh 30.46 in1031.5 mb 0.00 in0.0 mm 0.00 in0.0 mm 0.00 in0.0 mm
09:15 AM -3.1°F-19.5°C -9.6°F-23.1°C 73% Calm Calm 4.0 mph6.4 kmh 30.47 in1031.8 mb 0.00 in0.0 mm 0.00 in0.0 mm 0.00 in0.0 mm
09:30 AM -3.0°F-19.4°C -9.2°F-22.9°C 74% Calm Calm 4.0 mph6.4 kmh 30.48 in1032.2 mb 0.00 in0.0 mm 0.00 in0.0 mm 0.00 in0.0 mm
09:45 AM -2.8°F-19.3°C -9.0°F-22.8°C 74% Calm Calm 5.0 mph8.0 kmh 30.48 in1032.2 mb 0.00 in0.0 mm 0.00 in0.0 mm 0.00 in0.0 mm
10:00 AM -2.5°F-19.2°C -8.5°F-22.5°C 75% 1.0 mph NE1.6 kmh NE 7.0 mph11.3 kmh 30.48 in1032.2 mb 0.00 in0.0 mm 0.00 in0.0 mm 0.00 in0.0 mm
10:15 AM -2.1°F-18.9°C -8.3°F-22.4°C 74% 1.0 mph NE1.6 kmh NE 5.0 mph8.0 kmh 30.48 in1032.2 mb 0.00 in0.0 mm 0.00 in0.0 mm 0.00 in0.0 mm
10:30 AM -1.4°F-18.6°C -7.4°F-21.9°C 75% Calm Calm 7.0 mph11.3 kmh 30.48 in1032.2 mb 0.00 in0.0 mm 0.00 in0.0 mm 0.00 in0.0 mm
10:45 AM -0.6°F-18.1°C -6.9°F-21.6°C 74% 1.0 mph NE1.6 kmh NE 4.0 mph6.4 kmh 30.50 in1032.8 mb 0.00 in0.0 mm 0.00 in0.0 mm 0.00 in0.0 mm
11:00 AM 0.1°F-17.7°C -6.8°F-21.6°C 72% 1.0 mph NE1.6 kmh NE 5.0 mph8.0 kmh 30.50 in1032.8 mb 0.00 in0.0 mm 0.00 in0.0 mm 0.00 in0.0 mm
11:15 AM 1.0°F-17.2°C -5.9°F-21.1°C 72% 2.0 mph NNE3.2 kmh NNE 5.0 mph8.0 kmh 30.49 in1032.5 mb 0.00 in0.0 mm 0.00 in0.0 mm 0.00 in0.0 mm
11:30 AM 1.9°F-16.7°C -5.3°F-20.7°C 71% Calm Calm 6.0 mph9.7 kmh 30.50 in1032.8 mb 0.00 in0.0 mm 0.00 in0.0 mm 0.00 in0.0 mm
11:45 AM 3.6°F-15.8°C -4.0°F-20.0°C 70% Calm Calm 8.0 mph12.9 kmh 30.50 in1032.8 mb 0.00 in0.0 mm 0.00 in0.0 mm 0.00 in0.0 mm
12:00 PM 5.3°F-14.8°C -2.6°F-19.2°C 69% 1.0 mph NE1.6 kmh NE 8.0 mph12.9 kmh 30.51 in1033.2 mb 0.00 in0.0 mm 0.00 in0.0 mm 0.00 in0.0 mm
12:15 PM 6.4°F-14.2°C -2.5°F-19.2°C 66% 5.0 mph E8.0 kmh E 7.0 mph11.3 kmh 30.51 in1033.2 mb 0.00 in0.0 mm 0.00 in0.0 mm 0.00 in0.0 mm
12:30 PM 7.4°F-13.7°C -1.9°F-18.8°C 65% Calm Calm 7.0 mph11.3 kmh 30.51 in1033.2 mb 0.00 in0.0 mm 0.00 in0.0 mm 0.00 in0.0 mm
12:45 PM 7.2°F-13.8°C -2.7°F-19.3°C 63% Calm Calm 7.0 mph11.3 kmh 30.51 in1033.2 mb 0.00 in0.0 mm 0.00 in0.0 mm 0.00 in0.0 mm
01:00 PM 7.6°F-13.6°C -2.0°F-18.9°C 64% Calm Calm 7.0 mph11.3 kmh 30.51 in1033.2 mb 0.00 in0.0 mm 0.00 in0.0 mm 0.00 in0.0 mm
01:15 PM 7.3°F-13.7°C -2.6°F-19.2°C 63% 3.0 mph NE4.8 kmh NE 5.0 mph8.0 kmh 30.50 in1032.8 mb 0.00 in0.0 mm 0.00 in0.0 mm 0.00 in0.0 mm
01:30 PM 7.6°F-13.6°C -2.0°F-18.9°C 64% Calm Calm 5.0 mph8.0 kmh 30.50 in1032.8 mb 0.00 in0.0 mm 0.00 in0.0 mm 0.00 in0.0 mm
01:45 PM 8.1°F-13.3°C -1.2°F-18.4°C 65% 2.0 mph E3.2 kmh E 5.0 mph8.0 kmh 30.50 in1032.8 mb 0.00 in0.0 mm 0.00 in0.0 mm 0.00 in0.0 mm
02:00 PM 8.6°F-13.0°C -0.7°F-18.2°C 65% 2.0 mph E3.2 kmh E 5.0 mph8.0 kmh 30.49 in1032.5 mb 0.00 in0.0 mm 0.00 in0.0 mm 0.00 in0.0 mm
02:15 PM 9.4°F-12.6°C -0.6°F-18.1°C 63% Calm Calm 5.0 mph8.0 kmh 30.49 in1032.5 mb 0.00 in0.0 mm 0.00 in0.0 mm 0.00 in0.0 mm
02:30 PM 10.0°F-12.2°C -0.8°F-18.2°C 61% 3.0 mph E4.8 kmh E 6.0 mph9.7 kmh 30.48 in1032.2 mb 0.00 in0.0 mm 0.00 in0.0 mm 0.00 in0.0 mm
02:45 PM 10.7°F-11.8°C -0.4°F-18.0°C 60% Calm Calm 5.0 mph8.0 kmh 30.48 in1032.2 mb 0.00 in0.0 mm 0.00 in0.0 mm 0.00 in0.0 mm
03:00 PM 11.7°F-11.3°C -0.2°F-17.9°C 58% 2.0 mph ENE3.2 kmh ENE 5.0 mph8.0 kmh 30.48 in1032.2 mb 0.00 in0.0 mm 0.00 in0.0 mm 0.00 in0.0 mm
03:15 PM 12.6°F-10.8°C 0.3°F-17.6°C 57% Calm Calm 5.0 mph8.0 kmh 30.48 in1032.2 mb 0.00 in0.0 mm 0.00 in0.0 mm 0.00 in0.0 mm
03:30 PM 12.4°F-10.9°C -0.7°F-18.2°C 55% 1.0 mph NW1.6 kmh NW 5.0 mph8.0 kmh 30.48 in1032.2 mb 0.00 in0.0 mm 0.00 in0.0 mm 0.00 in0.0 mm
03:45 PM 13.0°F-10.6°C -0.1°F-17.8°C 55% Calm Calm 4.0 mph6.4 kmh 30.48 in1032.2 mb 0.00 in0.0 mm 0.00 in0.0 mm 0.00 in0.0 mm
04:00 PM 13.8°F-10.1°C 1.0°F-17.2°C 56% Calm Calm 4.0 mph6.4 kmh 30.48 in1032.2 mb 0.00 in0.0 mm 0.00 in0.0 mm 0.00 in0.0 mm
04:15 PM 13.7°F-10.2°C -0.3°F-17.9°C 53% Calm Calm 7.0 mph11.3 kmh 30.48 in1032.2 mb 0.00 in0.0 mm 0.00 in0.0 mm 0.00 in0.0 mm
04:30 PM 13.2°F-10.4°C -0.7°F-18.2°C 53% Calm Calm 7.0 mph11.3 kmh 30.48 in1032.2 mb 0.00 in0.0 mm 0.00 in0.0 mm 0.00 in0.0 mm
04:45 PM 13.0°F-10.6°C -0.9°F-18.3°C 53% Calm Calm 5.0 mph8.0 kmh 30.48 in1032.2 mb 0.00 in0.0 mm 0.00 in0.0 mm 0.00 in0.0 mm
05:00 PM 12.3°F-10.9°C -1.6°F-18.7°C 53% 1.0 mph E1.6 kmh E 5.0 mph8.0 kmh 30.48 in1032.2 mb 0.00 in0.0 mm 0.00 in0.0 mm 0.00 in0.0 mm
05:15 PM 11.6°F-11.3°C -1.1°F-18.4°C 56% Calm Calm 3.0 mph4.8 kmh 30.48 in1032.2 mb 0.00 in0.0 mm 0.00 in0.0 mm 0.00 in0.0 mm
05:30 PM 11.2°F-11.6°C -1.1°F-18.4°C 57% Calm Calm 3.0 mph4.8 kmh 30.48 in1032.2 mb 0.00 in0.0 mm 0.00 in0.0 mm 0.00 in0.0 mm
05:45 PM 10.7°F-11.8°C -1.2°F-18.4°C 58% Calm Calm -- 30.48 in1032.2 mb 0.00 in0.0 mm 0.00 in0.0 mm 0.00 in0.0 mm
06:00 PM 10.0°F-12.2°C -1.1°F-18.4°C 60% Calm Calm -- 30.48 in1032.2 mb 0.00 in0.0 mm 0.00 in0.0 mm 0.00 in0.0 mm
06:15 PM 8.5°F-13.1°C -2.5°F-19.2°C 60% Calm Calm 1.0 mph1.6 kmh 30.48 in1032.2 mb 0.00 in0.0 mm 0.00 in0.0 mm 0.00 in0.0 mm
06:30 PM 7.4°F-13.7°C -2.9°F-19.4°C 62% Calm Calm 1.0 mph1.6 kmh 30.48 in1032.2 mb 0.00 in0.0 mm 0.00 in0.0 mm 0.00 in0.0 mm
06:45 PM 6.3°F-14.3°C -3.3°F-19.6°C 64% Calm Calm -- 30.48 in1032.2 mb 0.00 in0.0 mm 0.00 in0.0 mm 0.00 in0.0 mm
07:00 PM 5.1°F-14.9°C -3.8°F-19.9°C 66% Calm Calm -- 30.48 in1032.2 mb 0.00 in0.0 mm 0.00 in0.0 mm 0.00 in0.0 mm
07:15 PM 4.0°F-15.6°C -4.2°F-20.1°C 68% Calm Calm -- 30.48 in1032.2 mb 0.00 in0.0 mm 0.00 in0.0 mm 0.00 in0.0 mm
07:30 PM 2.9°F-16.2°C -5.0°F-20.6°C 69% Calm Calm -- 30.49 in1032.5 mb 0.00 in0.0 mm 0.00 in0.0 mm 0.00 in0.0 mm
07:45 PM 2.2°F-16.6°C -5.0°F-20.6°C 71% Calm Calm -- 30.50 in1032.8 mb 0.00 in0.0 mm 0.00 in0.0 mm 0.00 in0.0 mm
08:00 PM 1.7°F-16.8°C -5.2°F-20.7°C 72% Calm Calm -- 30.50 in1032.8 mb 0.00 in0.0 mm 0.00 in0.0 mm 0.00 in0.0 mm
08:15 PM 0.8°F-17.3°C -5.8°F-21.0°C 73% Calm Calm -- 30.50 in1032.8 mb 0.00 in0.0 mm 0.00 in0.0 mm 0.00 in0.0 mm
08:30 PM 0.3°F-17.6°C -6.0°F-21.1°C 74% Calm Calm -- 30.50 in1032.8 mb 0.00 in0.0 mm 0.00 in0.0 mm 0.00 in0.0 mm
08:45 PM -0.2°F-17.9°C -6.2°F-21.2°C 75% Calm Calm -- 30.50 in1032.8 mb 0.00 in0.0 mm 0.00 in0.0 mm 0.00 in0.0 mm
09:00 PM -0.7°F-18.2°C -6.4°F-21.3°C 76% Calm Calm -- 30.50 in1032.8 mb 0.00 in0.0 mm 0.00 in0.0 mm 0.00 in0.0 mm
09:15 PM -1.0°F-18.3°C -6.7°F-21.5°C 76% Calm Calm -- 30.51 in1033.2 mb 0.00 in0.0 mm 0.00 in0.0 mm 0.00 in0.0 mm
09:30 PM -1.1°F-18.4°C -6.6°F-21.4°C 77% Calm Calm -- 30.50 in1032.8 mb 0.00 in0.0 mm 0.00 in0.0 mm 0.00 in0.0 mm
09:45 PM -1.4°F-18.6°C -6.9°F-21.6°C 77% Calm Calm -- 30.49 in1032.5 mb 0.00 in0.0 mm 0.00 in0.0 mm 0.00 in0.0 mm
10:00 PM -1.9°F-18.8°C -7.3°F-21.8°C 77% Calm Calm -- 30.49 in1032.5 mb 0.00 in0.0 mm 0.00 in0.0 mm 0.00 in0.0 mm
10:15 PM -2.6°F-19.2°C -7.5°F-21.9°C 79% Calm Calm -- 30.50 in1032.8 mb 0.00 in0.0 mm 0.00 in0.0 mm 0.00 in0.0 mm
10:30 PM -2.8°F-19.3°C -7.7°F-22.1°C 79% Calm Calm -- 30.48 in1032.2 mb 0.00 in0.0 mm 0.00 in0.0 mm 0.00 in0.0 mm
10:45 PM -2.9°F-19.4°C -7.5°F-21.9°C 80% Calm Calm -- 30.48 in1032.2 mb 0.00 in0.0 mm 0.00 in0.0 mm 0.00 in0.0 mm
11:00 PM -3.1°F-19.5°C -7.7°F-22.1°C 80% Calm Calm -- 30.48 in1032.2 mb 0.00 in0.0 mm 0.00 in0.0 mm 0.00 in0.0 mm
11:15 PM -3.0°F-19.4°C -7.4°F-21.9°C 81% Calm Calm -- 30.49 in1032.5 mb 0.00 in0.0 mm 0.00 in0.0 mm 0.00 in0.0 mm
11:30 PM -3.0°F-19.4°C -7.4°F-21.9°C 81% Calm Calm -- 30.49 in1032.5 mb 0.00 in0.0 mm 0.00 in0.0 mm 0.00 in0.0 mm
11:45 PM -3.0°F-19.4°C -7.4°F-21.9°C 81% Calm Calm -- 30.49 in1032.5 mb 0.00 in0.0 mm 0.00 in0.0 mm 0.00 in0.0 mm